createdAt,value
2023-04-12T00:01:24.637Z,98.42
2023-04-12T00:03:51.558Z,98.61
2023-04-12T00:06:18.322Z,99.01
2023-04-12T00:08:44.970Z,98.81
2023-04-12T00:11:11.605Z,99.09
2023-04-12T00:13:38.676Z,99.68
2023-04-12T00:16:05.820Z,99.74
2023-04-12T00:18:32.696Z,100.00
2023-04-12T00:20:59.300Z,99.40
2023-04-12T00:23:26.155Z,98.30
2023-04-12T00:25:52.826Z,99.75
2023-04-12T00:28:19.468Z,99.86
2023-04-12T00:30:46.208Z,100.00
2023-04-12T00:33:12.907Z,100.00
2023-04-12T00:35:39.642Z,100.00
2023-04-12T00:38:06.427Z,100.00
2023-04-12T00:40:33.084Z,100.00
2023-04-12T00:43:00.606Z,100.00
2023-04-12T00:45:30.288Z,99.30
2023-04-12T00:47:57.027Z,100.00
2023-04-12T00:50:23.776Z,100.00
2023-04-12T00:52:50.589Z,100.00
2023-04-12T00:55:17.687Z,100.00
2023-04-12T00:57:44.332Z,98.94
2023-04-12T01:00:11.836Z,100.00
2023-04-12T01:02:41.759Z,100.00
2023-04-12T01:05:09.441Z,100.00
2023-04-12T01:07:48.105Z,100.00
2023-04-12T01:10:26.308Z,100.00
2023-04-12T01:13:14.600Z,100.00
2023-04-12T01:16:02.093Z,99.97
2023-04-12T01:18:30.894Z,100.00
2023-04-12T01:21:05.706Z,100.00
2023-04-12T01:23:52.178Z,98.97
2023-04-12T01:26:21.901Z,98.88
2023-04-12T01:28:53.137Z,100.00
2023-04-12T01:31:21.290Z,100.00
2023-04-12T01:33:50.942Z,100.00
2023-04-12T01:36:21.784Z,100.00
2023-04-12T01:38:49.907Z,100.00
2023-04-12T01:41:16.770Z,100.00
2023-04-12T01:43:45.591Z,100.00
2023-04-12T01:46:14.718Z,100.00
2023-04-12T01:48:49.953Z,100.00
2023-04-12T01:51:27.897Z,100.00
2023-04-12T01:54:01.018Z,100.00
2023-04-12T01:56:31.444Z,99.91
2023-04-12T01:58:59.914Z,100.00
2023-04-12T02:01:28.273Z,100.00
2023-04-12T02:03:57.920Z,98.59
2023-04-12T02:06:26.320Z,100.00
2023-04-12T02:09:06.468Z,100.00
2023-04-12T02:11:33.328Z,98.52
2023-04-12T02:14:00.080Z,98.50
2023-04-12T02:16:27.421Z,96.87
2023-04-12T02:18:54.032Z,97.55
2023-04-12T02:21:20.807Z,98.09
2023-04-12T02:23:47.414Z,97.89
2023-04-12T02:26:14.003Z,96.14
2023-04-12T02:28:40.620Z,96.96
2023-04-12T02:31:07.482Z,95.86
2023-04-12T02:33:34.478Z,96.67
2023-04-12T02:36:01.922Z,97.72
2023-04-12T02:38:29.096Z,98.10
2023-04-12T02:40:55.729Z,99.96
2023-04-12T02:43:22.573Z,100.00
2023-04-12T02:45:52.375Z,100.00
2023-04-12T02:48:19.009Z,100.00
2023-04-12T02:50:45.643Z,100.00
2023-04-12T02:53:12.261Z,100.00
2023-04-12T02:55:38.976Z,100.00
2023-04-12T02:58:05.727Z,100.00
2023-04-12T03:00:32.347Z,99.38
2023-04-12T03:03:00.914Z,100.00
2023-04-12T03:05:27.599Z,100.00
2023-04-12T03:07:54.487Z,98.73
2023-04-12T03:10:21.315Z,99.25
2023-04-12T03:12:47.939Z,100.00
2023-04-12T03:15:14.668Z,100.00
2023-04-12T03:17:41.526Z,100.00
2023-04-12T03:20:09.508Z,100.00
2023-04-12T03:22:37.064Z,99.82
2023-04-12T03:25:05.160Z,99.64
2023-04-12T03:27:32.064Z,99.69
2023-04-12T03:29:58.774Z,100.00
2023-04-12T03:32:25.461Z,99.78
2023-04-12T03:34:52.163Z,99.39
2023-04-12T03:37:19.048Z,100.00
2023-04-12T03:39:45.694Z,100.00
2023-04-12T03:42:25.412Z,100.00
2023-04-12T03:44:58.908Z,100.00
2023-04-12T03:47:25.640Z,100.00
2023-04-12T03:50:09.635Z,100.00
2023-04-12T03:52:38.309Z,100.00
2023-04-12T03:55:05.363Z,100.00
2023-04-12T03:57:32.126Z,100.00
2023-04-12T03:59:58.850Z,100.00
2023-04-12T04:02:27.711Z,100.00
2023-04-12T04:04:54.656Z,100.00
2023-04-12T04:07:23.048Z,100.00
2023-04-12T04:09:49.734Z,100.00
2023-04-12T04:12:16.324Z,100.00
2023-04-12T04:14:43.069Z,100.00
2023-04-12T04:17:09.725Z,100.00
2023-04-12T04:19:36.339Z,100.00
2023-04-12T04:22:02.927Z,100.00
2023-04-12T04:24:29.539Z,99.14
2023-04-12T04:26:56.186Z,99.19
2023-04-12T04:29:22.866Z,100.00
2023-04-12T04:31:49.594Z,99.90
2023-04-12T04:34:16.320Z,100.00
2023-04-12T04:36:43.021Z,99.52
2023-04-12T04:39:09.743Z,100.00
2023-04-12T04:41:36.362Z,100.00
2023-04-12T04:44:02.999Z,99.92
2023-04-12T04:46:29.748Z,100.00
2023-04-12T04:48:56.753Z,100.00
2023-04-12T04:51:23.419Z,100.00
2023-04-12T04:53:50.035Z,100.00
2023-04-12T04:56:16.637Z,100.00
2023-04-12T04:58:46.414Z,99.66
2023-04-12T05:01:13.138Z,98.73
2023-04-12T05:03:39.945Z,100.00
2023-04-12T05:06:06.961Z,100.00
2023-04-12T05:08:33.540Z,99.03
2023-04-12T05:11:00.178Z,97.78
2023-04-12T05:13:26.981Z,97.80
2023-04-12T05:15:53.702Z,98.06
2023-04-12T05:18:20.712Z,97.23
2023-04-12T05:20:47.366Z,94.44
2023-04-12T05:23:14.940Z,95.28
2023-04-12T05:25:45.840Z,93.80
2023-04-12T05:28:13.738Z,91.80
2023-04-12T05:30:40.745Z,92.03
2023-04-12T05:33:07.430Z,90.79
2023-04-12T05:35:34.240Z,91.73
2023-04-12T05:38:01.059Z,92.07
2023-04-12T05:40:27.680Z,90.30
2023-04-12T05:42:54.485Z,89.30
2023-04-12T05:45:21.080Z,88.83
2023-04-12T05:47:47.809Z,88.73
2023-04-12T05:50:14.681Z,87.28
2023-04-12T05:52:41.325Z,87.73
2023-04-12T05:55:08.265Z,85.17
2023-04-12T05:57:34.974Z,83.36
2023-04-12T06:00:01.639Z,85.01
2023-04-12T06:02:28.451Z,84.73
2023-04-12T06:04:55.541Z,81.61
2023-04-12T06:07:22.825Z,81.45
2023-04-12T06:09:49.451Z,80.69
2023-04-12T06:12:16.206Z,80.39
2023-04-12T06:14:42.939Z,78.58
2023-04-12T06:17:09.536Z,79.47
2023-04-12T06:19:36.161Z,80.22
2023-04-12T06:22:02.908Z,81.29
2023-04-12T06:24:29.535Z,81.18
2023-04-12T06:26:56.167Z,78.96
2023-04-12T06:29:22.848Z,78.98
2023-04-12T06:31:49.467Z,79.42
2023-04-12T06:34:16.108Z,77.24
2023-04-12T06:36:42.837Z,78.59
2023-04-12T06:39:09.729Z,78.34
2023-04-12T06:41:36.384Z,78.67
2023-04-12T06:44:02.974Z,80.13
2023-04-12T06:46:29.684Z,79.52
2023-04-12T06:48:56.569Z,77.83
2023-04-12T06:51:23.314Z,77.16
2023-04-12T06:53:49.905Z,79.15
2023-04-12T06:56:18.444Z,79.07
2023-04-12T06:58:45.837Z,78.17
2023-04-12T07:01:12.716Z,76.79
2023-04-12T07:03:39.731Z,75.51
2023-04-12T07:06:17.757Z,75.37
2023-04-12T07:08:50.807Z,76.93
2023-04-12T07:11:21.506Z,76.24
2023-04-12T07:13:49.364Z,77.29
2023-04-12T07:16:16.614Z,76.36
2023-04-12T07:18:43.223Z,74.21
2023-04-12T07:21:10.058Z,73.04
2023-04-12T07:23:36.789Z,74.49
2023-04-12T07:26:03.462Z,70.68
2023-04-12T07:28:30.114Z,73.50
2023-04-12T07:30:56.732Z,72.34
2023-04-12T07:33:25.871Z,72.26
2023-04-12T07:35:52.568Z,71.88
2023-04-12T07:38:19.569Z,71.26
2023-04-12T07:40:49.821Z,69.04
2023-04-12T07:43:16.937Z,71.41
2023-04-12T07:45:43.700Z,70.86
2023-04-12T07:48:10.430Z,71.15
2023-04-12T07:50:37.258Z,68.69
2023-04-12T07:53:24.803Z,69.70
2023-04-12T07:55:51.554Z,66.36
2023-04-12T07:58:19.514Z,66.87
2023-04-12T08:00:46.964Z,68.40
2023-04-12T08:03:16.022Z,70.70
2023-04-12T08:05:43.593Z,66.94
2023-04-12T08:08:10.777Z,67.52
2023-04-12T08:10:40.200Z,69.09
2023-04-12T08:13:07.541Z,67.87
2023-04-12T08:15:34.511Z,69.56
2023-04-12T08:18:02.426Z,68.19
2023-04-12T08:20:29.932Z,70.62
2023-04-12T08:22:56.809Z,68.28
2023-04-12T08:25:23.539Z,68.98
2023-04-12T08:27:51.161Z,66.16
2023-04-12T08:30:18.165Z,63.68
2023-04-12T08:32:45.032Z,67.86
2023-04-12T08:35:11.727Z,66.77
2023-04-12T08:37:38.506Z,65.16
2023-04-12T08:40:08.601Z,65.05
2023-04-12T08:42:35.994Z,65.70
2023-04-12T08:45:06.794Z,63.95
2023-04-12T08:47:39.552Z,67.31
2023-04-12T08:50:07.364Z,64.74
2023-04-12T08:52:34.332Z,63.58
2023-04-12T08:55:10.490Z,64.02
2023-04-12T08:57:40.553Z,64.15
2023-04-12T09:00:11.030Z,65.09
2023-04-12T09:02:39.127Z,63.23
2023-04-12T09:05:07.384Z,63.59
2023-04-12T09:07:34.329Z,63.24
2023-04-12T09:10:01.126Z,62.27
2023-04-12T09:12:28.046Z,63.50
2023-04-12T09:15:13.832Z,60.47
2023-04-12T09:17:42.463Z,61.01
2023-04-12T09:20:12.502Z,61.28
2023-04-12T09:22:39.430Z,59.11
2023-04-12T09:25:06.595Z,59.94
2023-04-12T09:27:46.950Z,58.74
2023-04-12T09:30:15.898Z,60.18
2023-04-12T09:32:42.965Z,58.96
2023-04-12T09:35:10.005Z,54.21
2023-04-12T09:37:36.846Z,56.59
2023-04-12T09:40:06.670Z,58.11
2023-04-12T09:42:35.024Z,58.61
2023-04-12T09:45:25.465Z,57.69
2023-04-12T09:47:53.007Z,53.96
2023-04-12T09:50:30.304Z,55.49
2023-04-12T09:52:58.062Z,55.37
2023-04-12T09:55:27.436Z,53.66
2023-04-12T09:57:56.717Z,57.63
2023-04-12T10:00:24.347Z,50.80
2023-04-12T10:02:53.589Z,56.03
2023-04-12T10:05:22.391Z,51.57
2023-04-12T10:07:49.890Z,52.02
2023-04-12T10:10:18.559Z,51.48
2023-04-12T10:12:47.980Z,50.49
2023-04-12T10:15:16.180Z,50.45
2023-04-12T10:17:45.723Z,51.64
2023-04-12T10:20:17.317Z,51.73
2023-04-12T10:22:49.416Z,49.52
2023-04-12T10:25:24.163Z,48.42
2023-04-12T10:27:51.123Z,50.38
2023-04-12T10:30:27.800Z,53.69
2023-04-12T10:33:03.652Z,47.05
2023-04-12T10:35:56.082Z,48.91
2023-04-12T10:38:24.125Z,47.84
2023-04-12T10:41:15.686Z,49.48
2023-04-12T10:43:44.354Z,47.08
2023-04-12T10:46:36.076Z,50.99
2023-04-12T10:49:12.759Z,48.33
2023-04-12T10:51:40.183Z,47.72
2023-04-12T10:54:18.862Z,49.26
2023-04-12T10:56:46.911Z,49.88
2023-04-12T10:59:14.908Z,42.08
2023-04-12T11:02:03.088Z,48.87
2023-04-12T11:04:30.318Z,47.31
2023-04-12T11:06:59.839Z,45.04
2023-04-12T11:09:34.279Z,46.57
2023-04-12T11:12:03.628Z,46.81
2023-04-12T11:14:38.775Z,45.07
2023-04-12T11:17:08.187Z,45.03
2023-04-12T11:19:40.915Z,45.86
2023-04-12T11:22:10.558Z,43.44
2023-04-12T11:24:40.760Z,41.70
2023-04-12T11:27:08.629Z,41.99
2023-04-12T11:29:35.521Z,45.86
2023-04-12T11:32:12.046Z,43.78
2023-04-12T11:34:38.867Z,41.15
2023-04-12T11:37:09.889Z,43.65
2023-04-12T11:39:44.338Z,41.98
2023-04-12T11:42:19.265Z,44.71
2023-04-12T11:47:19.630Z,41.87
2023-04-12T11:49:48.517Z,45.27
2023-04-12T11:52:16.546Z,40.99
2023-04-12T11:54:50.936Z,41.91
2023-04-12T11:57:19.118Z,41.00
2023-04-12T11:59:47.182Z,40.37
2023-04-12T12:02:22.574Z,43.64
2023-04-12T12:04:51.340Z,42.75
2023-04-12T12:07:19.333Z,41.33
2023-04-12T12:09:46.564Z,43.42
2023-04-12T12:12:14.008Z,41.58
2023-04-12T12:14:43.819Z,43.06
2023-04-12T12:17:14.462Z,43.58
2023-04-12T12:19:43.493Z,42.12
2023-04-12T12:22:21.317Z,39.03
2023-04-12T12:24:58.339Z,41.00
2023-04-12T12:27:34.517Z,38.86
2023-04-12T12:30:02.324Z,39.72
2023-04-12T12:32:37.126Z,40.94
2023-04-12T12:35:09.197Z,41.02
2023-04-12T12:37:36.294Z,39.15
2023-04-12T12:40:11.459Z,38.48
2023-04-12T12:42:51.276Z,39.83
2023-04-12T12:45:20.125Z,40.02
2023-04-12T12:48:00.030Z,38.19
2023-04-12T12:50:29.568Z,38.66
2023-04-12T12:52:57.042Z,39.98
2023-04-12T12:55:24.685Z,38.13
2023-04-12T12:58:07.582Z,35.30
2023-04-12T13:00:35.444Z,39.43
2023-04-12T13:03:04.733Z,38.81
2023-04-12T13:05:31.693Z,37.29
2023-04-12T13:07:58.454Z,36.69
2023-04-12T13:10:25.092Z,39.25
2023-04-12T13:12:51.747Z,36.78
2023-04-12T13:15:22.935Z,40.71
2023-04-12T13:17:54.473Z,38.18
2023-04-12T13:20:25.942Z,39.14
2023-04-12T13:22:52.610Z,37.08
2023-04-12T13:25:19.807Z,35.32
2023-04-12T13:27:48.212Z,37.96
2023-04-12T13:30:15.131Z,36.29
2023-04-12T13:32:41.830Z,35.60
2023-04-12T13:35:08.851Z,37.05
2023-04-12T13:37:35.578Z,37.99
2023-04-12T13:40:03.033Z,34.15
2023-04-12T13:42:29.753Z,37.25
2023-04-12T13:44:56.878Z,38.07
2023-04-12T13:47:23.722Z,36.59
2023-04-12T13:49:50.562Z,38.47
2023-04-12T13:52:17.216Z,36.99
2023-04-12T13:54:43.921Z,34.99
2023-04-12T13:57:10.679Z,34.43
2023-04-12T13:59:37.326Z,33.94
2023-04-12T14:02:04.169Z,34.95
2023-04-12T14:04:31.649Z,34.12
2023-04-12T14:07:00.023Z,33.19
2023-04-12T14:09:27.927Z,33.53
2023-04-12T14:11:56.080Z,35.87
2023-04-12T14:14:23.543Z,35.47
2023-04-12T14:16:51.736Z,35.62
2023-04-12T14:19:18.456Z,34.66
2023-04-12T14:21:45.138Z,36.60
2023-04-12T14:24:11.836Z,32.52
2023-04-12T14:26:39.072Z,35.73
2023-04-12T14:29:09.327Z,33.25
2023-04-12T14:31:36.152Z,34.61
2023-04-12T14:34:04.434Z,35.45
2023-04-12T14:36:32.101Z,36.37
2023-04-12T14:39:00.959Z,35.10
2023-04-12T14:41:27.635Z,34.86
2023-04-12T14:43:54.311Z,34.95
2023-04-12T14:46:21.135Z,34.45
2023-04-12T14:48:47.814Z,33.45
2023-04-12T14:51:14.582Z,35.68
2023-04-12T14:53:41.323Z,34.21
2023-04-12T14:56:23.219Z,32.97
2023-04-12T14:58:54.315Z,33.37
2023-04-12T15:01:22.665Z,31.84
2023-04-12T15:03:50.276Z,30.99
2023-04-12T15:06:17.855Z,31.88
2023-04-12T15:08:44.528Z,30.41
2023-04-12T15:11:12.160Z,30.44
2023-04-12T15:13:39.797Z,29.66
2023-04-12T15:16:09.112Z,32.32
2023-04-12T15:18:39.440Z,31.16
2023-04-12T15:21:07.772Z,31.62
2023-04-12T15:23:35.101Z,30.10
2023-04-12T15:26:02.242Z,29.84
2023-04-12T15:28:33.060Z,29.15
2023-04-12T15:30:59.856Z,27.06
2023-04-12T15:33:26.762Z,28.21
2023-04-12T15:35:54.592Z,28.46
2023-04-12T15:38:23.881Z,27.79
2023-04-12T15:40:55.665Z,27.08
2023-04-12T15:43:23.672Z,32.45
2023-04-12T15:45:51.741Z,30.47
2023-04-12T15:48:19.497Z,28.33
2023-04-12T15:50:46.829Z,32.16
2023-04-12T15:53:15.322Z,30.33
2023-04-12T15:55:46.722Z,26.02
2023-04-12T15:58:14.021Z,28.64
2023-04-12T16:00:40.771Z,28.19
2023-04-12T16:03:07.689Z,27.07
2023-04-12T16:05:34.889Z,26.74
2023-04-12T16:08:02.143Z,26.59
2023-04-12T16:10:28.983Z,28.89
2023-04-12T16:12:56.626Z,28.86
2023-04-12T16:15:23.528Z,29.86
2023-04-12T16:17:50.810Z,30.06
2023-04-12T16:20:17.835Z,28.75
2023-04-12T16:22:45.590Z,29.69
2023-04-12T16:25:12.298Z,29.56
2023-04-12T16:27:38.975Z,30.17
2023-04-12T16:30:06.444Z,30.24
2023-04-12T16:32:33.454Z,30.54
2023-04-12T16:35:00.407Z,30.81
2023-04-12T16:37:28.821Z,30.89
2023-04-12T16:39:55.603Z,31.05
2023-04-12T16:42:23.083Z,29.78
2023-04-12T16:44:51.481Z,29.34
2023-04-12T16:47:23.477Z,29.18
2023-04-12T16:49:50.501Z,29.53
2023-04-12T16:52:17.254Z,31.40
2023-04-12T16:54:44.411Z,30.10
2023-04-12T16:57:12.145Z,31.38
2023-04-12T16:59:40.135Z,32.56
2023-04-12T17:02:06.954Z,30.70
2023-04-12T17:04:33.758Z,31.08
2023-04-12T17:07:03.447Z,29.42
2023-04-12T17:09:30.203Z,29.40
2023-04-12T17:11:57.050Z,29.16
2023-04-12T17:14:23.725Z,29.95
2023-04-12T17:16:50.377Z,28.94
2023-04-12T17:19:17.128Z,30.99
2023-04-12T17:21:43.982Z,29.12
2023-04-12T17:24:10.702Z,31.06
2023-04-12T17:26:40.178Z,30.43
2023-04-12T17:29:06.922Z,33.86
2023-04-12T17:31:36.477Z,35.37
2023-04-12T17:34:03.121Z,31.71
2023-04-12T17:36:29.992Z,32.25
2023-04-12T17:38:57.356Z,35.91
2023-04-12T17:41:24.037Z,36.25
2023-04-12T17:43:50.637Z,38.47
2023-04-12T17:46:17.295Z,38.56
2023-04-12T17:48:43.947Z,38.01
2023-04-12T17:51:10.552Z,37.89
2023-04-12T17:53:37.164Z,38.31
2023-04-12T17:56:03.887Z,37.57
2023-04-12T17:58:30.963Z,37.71
2023-04-12T18:00:58.170Z,39.12
2023-04-12T18:03:25.193Z,38.03
2023-04-12T18:05:51.959Z,39.34
2023-04-12T18:08:18.813Z,40.91
2023-04-12T18:10:45.454Z,41.11
2023-04-12T18:13:12.089Z,39.86
2023-04-12T18:15:38.880Z,39.67
2023-04-12T18:18:05.771Z,41.04
2023-04-12T18:20:32.653Z,42.04
2023-04-12T18:22:59.594Z,40.88
2023-04-12T18:25:26.341Z,40.91
2023-04-12T18:27:53.341Z,41.48
2023-04-12T18:30:20.160Z,41.54
2023-04-12T18:32:46.902Z,41.49
2023-04-12T18:35:13.748Z,40.86
2023-04-12T18:37:40.505Z,40.67
2023-04-12T18:40:07.577Z,41.14
2023-04-12T18:42:34.290Z,40.77
2023-04-12T18:45:01.043Z,41.52
2023-04-12T18:47:27.921Z,40.62
2023-04-12T18:49:55.231Z,41.58
2023-04-12T18:52:21.926Z,43.21
2023-04-12T18:54:48.589Z,44.27
2023-04-12T18:57:15.688Z,44.64
2023-04-12T18:59:42.429Z,45.15
2023-04-12T19:02:09.123Z,46.16
2023-04-12T19:04:35.989Z,45.31
2023-04-12T19:07:02.605Z,44.73
2023-04-12T19:09:29.242Z,45.86
2023-04-12T19:11:55.949Z,45.70
2023-04-12T19:14:22.838Z,45.73
2023-04-12T19:16:52.743Z,45.96
2023-04-12T19:19:19.451Z,45.54
2023-04-12T19:21:46.124Z,46.33
2023-04-12T19:24:13.080Z,47.21
2023-04-12T19:26:39.747Z,47.93
2023-04-12T19:29:06.640Z,49.28
2023-04-12T19:31:33.387Z,48.06
2023-04-12T19:34:00.180Z,47.11
2023-04-12T19:36:26.995Z,48.46
2023-04-12T19:38:53.636Z,47.30
2023-04-12T19:41:20.674Z,47.81
2023-04-12T19:43:47.507Z,47.10
2023-04-12T19:46:14.335Z,47.94
2023-04-12T19:48:41.037Z,48.86
2023-04-12T19:51:07.709Z,48.92
2023-04-12T19:53:34.416Z,48.88
2023-04-12T19:56:01.168Z,48.30
2023-04-12T19:58:27.799Z,47.97
2023-04-12T20:00:54.611Z,48.32
2023-04-12T20:03:21.448Z,48.82
2023-04-12T20:05:48.109Z,47.60
2023-04-12T20:08:15.000Z,47.08
2023-04-12T20:10:42.121Z,47.62
2023-04-12T20:13:08.759Z,47.98
2023-04-12T20:15:35.477Z,49.66
2023-04-12T20:18:02.286Z,49.84
2023-04-12T20:20:29.087Z,50.19
2023-04-12T20:22:55.725Z,50.11
2023-04-12T20:25:22.432Z,49.68
2023-04-12T20:27:49.035Z,49.82
2023-04-12T20:30:15.665Z,48.50
2023-04-12T20:32:42.338Z,48.08
2023-04-12T20:35:09.769Z,48.96
2023-04-12T20:37:36.578Z,50.34
2023-04-12T20:40:03.323Z,50.65
2023-04-12T20:42:29.958Z,51.16
2023-04-12T20:44:56.811Z,50.05
2023-04-12T20:47:23.464Z,51.10
2023-04-12T20:49:50.075Z,50.44
2023-04-12T20:52:16.790Z,50.78
2023-04-12T20:54:43.433Z,50.30
2023-04-12T20:57:10.223Z,50.16
2023-04-12T20:59:37.034Z,50.09
2023-04-12T21:02:03.948Z,51.80
2023-04-12T21:04:33.074Z,51.53
2023-04-12T21:06:59.810Z,51.76
2023-04-12T21:09:26.450Z,51.67
2023-04-12T21:11:53.120Z,51.82
2023-04-12T21:14:20.382Z,52.25
2023-04-12T21:16:47.488Z,52.27
2023-04-12T21:19:17.436Z,52.30
2023-04-12T21:21:45.004Z,53.55
2023-04-12T21:24:11.678Z,53.44
2023-04-12T21:26:38.284Z,53.81
2023-04-12T21:29:04.961Z,54.47
2023-04-12T21:31:31.648Z,53.79
2023-04-12T21:33:58.622Z,53.56
2023-04-12T21:36:26.422Z,54.36
2023-04-12T21:38:53.195Z,54.19
2023-04-12T21:41:19.981Z,53.99
2023-04-12T21:43:46.685Z,53.71
2023-04-12T21:46:13.373Z,54.80
2023-04-12T21:48:40.226Z,53.41
2023-04-12T21:51:07.169Z,53.84
2023-04-12T21:53:33.811Z,54.54
2023-04-12T21:56:00.486Z,54.78
2023-04-12T21:58:27.217Z,55.00
2023-04-12T22:00:54.007Z,55.59
2023-04-12T22:03:20.700Z,55.15
2023-04-12T22:06:00.890Z,55.21
2023-04-12T22:08:30.841Z,55.51
2023-04-12T22:10:57.434Z,55.92
2023-04-12T22:13:24.066Z,55.81
2023-04-12T22:15:51.006Z,56.04
2023-04-12T22:18:17.669Z,56.10
2023-04-12T22:20:44.540Z,56.78
2023-04-12T22:23:11.228Z,57.13
2023-04-12T22:25:40.422Z,56.81
2023-04-12T22:28:07.132Z,56.16
2023-04-12T22:30:33.766Z,56.17
2023-04-12T22:33:00.422Z,57.54
2023-04-12T22:35:27.123Z,56.37
2023-04-12T22:37:53.896Z,56.66
2023-04-12T22:40:20.614Z,56.22
2023-04-12T22:42:48.385Z,58.52
2023-04-12T22:45:16.637Z,56.57
2023-04-12T22:47:45.940Z,57.41
2023-04-12T22:50:13.034Z,56.92
2023-04-12T22:52:40.076Z,55.96
2023-04-12T22:55:11.171Z,56.73
2023-04-12T22:57:37.810Z,57.29
2023-04-12T23:00:05.450Z,57.96
2023-04-12T23:02:32.662Z,57.78
2023-04-12T23:05:00.054Z,57.20
2023-04-12T23:07:26.965Z,58.05
2023-04-12T23:09:53.669Z,57.39
2023-04-12T23:12:20.303Z,57.86
2023-04-12T23:14:46.950Z,59.83
2023-04-12T23:17:13.892Z,58.13
2023-04-12T23:19:40.610Z,58.88
2023-04-12T23:22:07.273Z,57.06
2023-04-12T23:24:33.933Z,58.72
2023-04-12T23:27:00.734Z,58.75
2023-04-12T23:29:27.432Z,58.84
2023-04-12T23:31:54.059Z,59.23
2023-04-12T23:34:20.733Z,61.68
2023-04-12T23:36:48.059Z,60.35
2023-04-12T23:39:14.706Z,58.90
2023-04-12T23:41:41.284Z,58.57
2023-04-12T23:44:07.995Z,58.11
2023-04-12T23:46:34.611Z,58.53
2023-04-12T23:49:01.301Z,58.50
2023-04-12T23:51:27.945Z,58.91
2023-04-12T23:53:54.566Z,58.68
2023-04-12T23:56:21.447Z,59.99
2023-04-12T23:58:48.191Z,58.83
